sensor_id;sensor_type;location;lat;lon;timestamp;temperature;humidity
8043;DHT22;4064;48.132;11.366;2022-08-18T00:00:01;18.80;99.90
8043;DHT22;4064;48.132;11.366;2022-08-18T00:02:28;18.80;99.90
8043;DHT22;4064;48.132;11.366;2022-08-18T00:04:55;18.80;99.90
8043;DHT22;4064;48.132;11.366;2022-08-18T00:07:24;18.80;99.90
8043;DHT22;4064;48.132;11.366;2022-08-18T00:09:50;18.80;99.90
8043;DHT22;4064;48.132;11.366;2022-08-18T00:12:24;18.80;99.90
8043;DHT22;4064;48.132;11.366;2022-08-18T00:14:52;18.90;99.90
8043;DHT22;4064;48.132;11.366;2022-08-18T00:17:18;18.80;99.90
8043;DHT22;4064;48.132;11.366;2022-08-18T00:19:45;18.80;99.90
8043;DHT22;4064;48.132;11.366;2022-08-18T00:22:13;18.80;99.90
8043;DHT22;4064;48.132;11.366;2022-08-18T00:24:39;18.80;99.90
8043;DHT22;4064;48.132;11.366;2022-08-18T00:27:05;18.80;99.90
8043;DHT22;4064;48.132;11.366;2022-08-18T00:29:31;18.80;99.90
8043;DHT22;4064;48.132;11.366;2022-08-18T00:31:57;18.70;99.90
8043;DHT22;4064;48.132;11.366;2022-08-18T00:34:23;18.70;99.90
8043;DHT22;4064;48.132;11.366;2022-08-18T00:36:48;18.60;99.90
8043;DHT22;4064;48.132;11.366;2022-08-18T00:39:14;18.60;99.90
8043;DHT22;4064;48.132;11.366;2022-08-18T00:41:40;18.60;99.90
8043;DHT22;4064;48.132;11.366;2022-08-18T00:44:07;18.60;99.90
8043;DHT22;4064;48.132;11.366;2022-08-18T00:46:35;18.60;99.90
8043;DHT22;4064;48.132;11.366;2022-08-18T00:49:02;18.60;99.90
8043;DHT22;4064;48.132;11.366;2022-08-18T00:51:31;18.60;99.90
8043;DHT22;4064;48.132;11.366;2022-08-18T00:53:59;18.60;99.90
8043;DHT22;4064;48.132;11.366;2022-08-18T00:56:30;18.60;99.90
8043;DHT22;4064;48.132;11.366;2022-08-18T00:59:14;18.60;99.90
8043;DHT22;4064;48.132;11.366;2022-08-18T01:01:42;18.60;99.90
8043;DHT22;4064;48.132;11.366;2022-08-18T01:04:18;18.60;99.90
8043;DHT22;4064;48.132;11.366;2022-08-18T01:06:54;18.50;99.90
8043;DHT22;4064;48.132;11.366;2022-08-18T01:09:21;18.40;99.90
8043;DHT22;4064;48.132;11.366;2022-08-18T01:11:47;18.40;99.90
8043;DHT22;4064;48.132;11.366;2022-08-18T01:14:17;18.30;99.90
8043;DHT22;4064;48.132;11.366;2022-08-18T01:16:46;18.30;99.90
8043;DHT22;4064;48.132;11.366;2022-08-18T01:19:32;18.20;99.90
8043;DHT22;4064;48.132;11.366;2022-08-18T01:25:09;18.10;99.90
8043;DHT22;4064;48.132;11.366;2022-08-18T01:27:53;18.10;99.90
8043;DHT22;4064;48.132;11.366;2022-08-18T01:30:22;18.10;99.90
8043;DHT22;4064;48.132;11.366;2022-08-18T01:32:50;18.00;99.90
8043;DHT22;4064;48.132;11.366;2022-08-18T01:35:18;18.00;99.90
8043;DHT22;4064;48.132;11.366;2022-08-18T01:37:45;18.00;99.90
8043;DHT22;4064;48.132;11.366;2022-08-18T01:40:13;18.00;99.90
8043;DHT22;4064;48.132;11.366;2022-08-18T01:42:39;18.00;99.90
8043;DHT22;4064;48.132;11.366;2022-08-18T01:45:08;17.90;99.90
8043;DHT22;4064;48.132;11.366;2022-08-18T01:47:35;17.90;99.90
8043;DHT22;4064;48.132;11.366;2022-08-18T01:50:03;17.90;99.90
8043;DHT22;4064;48.132;11.366;2022-08-18T01:52:29;17.90;99.90
8043;DHT22;4064;48.132;11.366;2022-08-18T01:54:55;17.80;99.90
8043;DHT22;4064;48.132;11.366;2022-08-18T01:57:23;17.80;99.90
8043;DHT22;4064;48.132;11.366;2022-08-18T01:59:49;17.80;99.90
8043;DHT22;4064;48.132;11.366;2022-08-18T02:02:19;17.80;99.90
8043;DHT22;4064;48.132;11.366;2022-08-18T02:04:51;17.70;99.90
8043;DHT22;4064;48.132;11.366;2022-08-18T02:07:19;17.70;99.90
8043;DHT22;4064;48.132;11.366;2022-08-18T02:09:45;17.70;99.90
8043;DHT22;4064;48.132;11.366;2022-08-18T02:12:12;17.70;99.90
8043;DHT22;4064;48.132;11.366;2022-08-18T02:14:39;17.70;99.90
8043;DHT22;4064;48.132;11.366;2022-08-18T02:17:06;17.60;99.90
8043;DHT22;4064;48.132;11.366;2022-08-18T02:19:43;17.60;99.90
8043;DHT22;4064;48.132;11.366;2022-08-18T02:22:12;17.60;99.90
8043;DHT22;4064;48.132;11.366;2022-08-18T02:24:39;17.60;99.90
8043;DHT22;4064;48.132;11.366;2022-08-18T02:27:06;17.60;99.90
8043;DHT22;4064;48.132;11.366;2022-08-18T02:29:33;17.60;99.90
8043;DHT22;4064;48.132;11.366;2022-08-18T02:31:58;17.50;99.90
8043;DHT22;4064;48.132;11.366;2022-08-18T02:34:25;17.50;99.90
8043;DHT22;4064;48.132;11.366;2022-08-18T02:36:51;17.60;99.90
8043;DHT22;4064;48.132;11.366;2022-08-18T02:39:17;17.50;99.90
8043;DHT22;4064;48.132;11.366;2022-08-18T02:41:43;17.50;99.90
8043;DHT22;4064;48.132;11.366;2022-08-18T02:44:09;17.50;99.90
8043;DHT22;4064;48.132;11.366;2022-08-18T02:46:35;17.50;99.90
8043;DHT22;4064;48.132;11.366;2022-08-18T02:49:03;17.50;99.90
8043;DHT22;4064;48.132;11.366;2022-08-18T02:51:29;17.50;99.90
8043;DHT22;4064;48.132;11.366;2022-08-18T02:53:55;17.50;99.90
8043;DHT22;4064;48.132;11.366;2022-08-18T02:56:25;17.50;99.90
8043;DHT22;4064;48.132;11.366;2022-08-18T02:59:04;17.40;99.90
8043;DHT22;4064;48.132;11.366;2022-08-18T03:01:33;17.40;99.90
8043;DHT22;4064;48.132;11.366;2022-08-18T03:03:59;17.40;99.90
8043;DHT22;4064;48.132;11.366;2022-08-18T03:06:27;17.40;99.90
8043;DHT22;4064;48.132;11.366;2022-08-18T03:08:53;17.30;99.90
8043;DHT22;4064;48.132;11.366;2022-08-18T03:11:25;17.30;99.90
8043;DHT22;4064;48.132;11.366;2022-08-18T03:13:51;17.40;99.90
8043;DHT22;4064;48.132;11.366;2022-08-18T03:16:17;17.30;99.90
8043;DHT22;4064;48.132;11.366;2022-08-18T03:18:44;17.30;99.90
8043;DHT22;4064;48.132;11.366;2022-08-18T03:21:17;17.30;99.90
8043;DHT22;4064;48.132;11.366;2022-08-18T03:23:43;17.30;99.90
8043;DHT22;4064;48.132;11.366;2022-08-18T03:26:13;17.30;99.90
8043;DHT22;4064;48.132;11.366;2022-08-18T03:28:43;17.30;99.90
8043;DHT22;4064;48.132;11.366;2022-08-18T03:31:11;17.30;99.90
8043;DHT22;4064;48.132;11.366;2022-08-18T03:33:39;17.30;99.90
8043;DHT22;4064;48.132;11.366;2022-08-18T03:36:16;17.20;99.90
8043;DHT22;4064;48.132;11.366;2022-08-18T03:38:44;17.20;99.90
8043;DHT22;4064;48.132;11.366;2022-08-18T03:41:13;17.20;99.90
8043;DHT22;4064;48.132;11.366;2022-08-18T03:43:39;17.20;99.90
8043;DHT22;4064;48.132;11.366;2022-08-18T03:46:09;17.20;99.90
8043;DHT22;4064;48.132;11.366;2022-08-18T03:48:36;17.20;99.90
8043;DHT22;4064;48.132;11.366;2022-08-18T03:53:31;17.10;99.90
8043;DHT22;4064;48.132;11.366;2022-08-18T03:55:59;17.20;99.90
8043;DHT22;4064;48.132;11.366;2022-08-18T03:58:26;17.20;99.90
8043;DHT22;4064;48.132;11.366;2022-08-18T04:00:51;17.20;99.90
8043;DHT22;4064;48.132;11.366;2022-08-18T04:03:17;17.20;99.90
8043;DHT22;4064;48.132;11.366;2022-08-18T04:05:43;17.20;99.90
8043;DHT22;4064;48.132;11.366;2022-08-18T04:08:10;17.20;99.90
8043;DHT22;4064;48.132;11.366;2022-08-18T04:10:36;17.10;99.90
8043;DHT22;4064;48.132;11.366;2022-08-18T04:13:02;17.00;99.90
8043;DHT22;4064;48.132;11.366;2022-08-18T04:15:30;17.00;99.90
8043;DHT22;4064;48.132;11.366;2022-08-18T04:18:00;17.00;99.90
8043;DHT22;4064;48.132;11.366;2022-08-18T04:20:29;17.00;99.90
8043;DHT22;4064;48.132;11.366;2022-08-18T04:22:57;17.00;99.90
8043;DHT22;4064;48.132;11.366;2022-08-18T04:25:23;17.00;99.90
8043;DHT22;4064;48.132;11.366;2022-08-18T04:27:50;16.90;99.90
8043;DHT22;4064;48.132;11.366;2022-08-18T04:30:16;16.80;99.90
8043;DHT22;4064;48.132;11.366;2022-08-18T04:32:42;16.80;99.90
8043;DHT22;4064;48.132;11.366;2022-08-18T04:35:08;16.80;99.90
8043;DHT22;4064;48.132;11.366;2022-08-18T04:37:37;16.90;99.90
8043;DHT22;4064;48.132;11.366;2022-08-18T04:40:04;16.90;99.90
8043;DHT22;4064;48.132;11.366;2022-08-18T04:42:32;16.90;99.90
8043;DHT22;4064;48.132;11.366;2022-08-18T04:44:58;17.00;99.90
8043;DHT22;4064;48.132;11.366;2022-08-18T04:47:24;16.90;99.90
8043;DHT22;4064;48.132;11.366;2022-08-18T04:49:50;16.90;99.90
8043;DHT22;4064;48.132;11.366;2022-08-18T04:52:16;17.00;99.90
8043;DHT22;4064;48.132;11.366;2022-08-18T04:55:01;17.00;99.90
8043;DHT22;4064;48.132;11.366;2022-08-18T04:57:28;17.10;99.90
8043;DHT22;4064;48.132;11.366;2022-08-18T04:59:54;17.10;99.90
8043;DHT22;4064;48.132;11.366;2022-08-18T05:02:22;17.20;99.90
8043;DHT22;4064;48.132;11.366;2022-08-18T05:04:47;17.20;99.90
8043;DHT22;4064;48.132;11.366;2022-08-18T05:07:16;17.30;99.90
8043;DHT22;4064;48.132;11.366;2022-08-18T05:09:43;17.30;99.90
8043;DHT22;4064;48.132;11.366;2022-08-18T05:12:10;17.40;99.90
8043;DHT22;4064;48.132;11.366;2022-08-18T05:14:38;17.40;99.90
8043;DHT22;4064;48.132;11.366;2022-08-18T05:17:04;17.50;99.90
8043;DHT22;4064;48.132;11.366;2022-08-18T05:19:30;17.70;99.90
8043;DHT22;4064;48.132;11.366;2022-08-18T05:21:57;17.80;99.90
8043;DHT22;4064;48.132;11.366;2022-08-18T05:24:25;17.90;99.90
8043;DHT22;4064;48.132;11.366;2022-08-18T05:26:52;18.00;99.90
8043;DHT22;4064;48.132;11.366;2022-08-18T05:29:18;18.10;99.90
8043;DHT22;4064;48.132;11.366;2022-08-18T05:31:50;18.20;99.90
8043;DHT22;4064;48.132;11.366;2022-08-18T05:34:17;18.30;99.90
8043;DHT22;4064;48.132;11.366;2022-08-18T05:41:52;18.50;99.90
8043;DHT22;4064;48.132;11.366;2022-08-18T05:44:30;18.60;99.90
8043;DHT22;4064;48.132;11.366;2022-08-18T05:49:35;19.10;99.90
8043;DHT22;4064;48.132;11.366;2022-08-18T05:52:07;19.20;99.90
8043;DHT22;4064;48.132;11.366;2022-08-18T05:54:44;19.30;99.90
8043;DHT22;4064;48.132;11.366;2022-08-18T05:57:46;19.20;99.90
8043;DHT22;4064;48.132;11.366;2022-08-18T06:00:18;19.20;99.90
8043;DHT22;4064;48.132;11.366;2022-08-18T06:03:04;19.10;99.90
8043;DHT22;4064;48.132;11.366;2022-08-18T06:05:37;19.10;99.90
8043;DHT22;4064;48.132;11.366;2022-08-18T06:08:09;19.10;99.90
8043;DHT22;4064;48.132;11.366;2022-08-18T06:10:38;19.10;99.90
8043;DHT22;4064;48.132;11.366;2022-08-18T06:13:07;19.00;99.90
8043;DHT22;4064;48.132;11.366;2022-08-18T06:15:49;19.00;99.90
8043;DHT22;4064;48.132;11.366;2022-08-18T06:26:47;19.00;99.90
8043;DHT22;4064;48.132;11.366;2022-08-18T06:29:36;19.00;99.90
8043;DHT22;4064;48.132;11.366;2022-08-18T06:37:35;19.00;99.90
8043;DHT22;4064;48.132;11.366;2022-08-18T06:40:25;19.00;99.90
8043;DHT22;4064;48.132;11.366;2022-08-18T06:42:51;19.10;99.90
8043;DHT22;4064;48.132;11.366;2022-08-18T06:45:18;19.10;99.90
8043;DHT22;4064;48.132;11.366;2022-08-18T06:48:01;19.20;99.90
8043;DHT22;4064;48.132;11.366;2022-08-18T06:50:40;19.20;99.90
8043;DHT22;4064;48.132;11.366;2022-08-18T06:53:12;19.20;99.90
8043;DHT22;4064;48.132;11.366;2022-08-18T06:55:49;19.20;99.90
8043;DHT22;4064;48.132;11.366;2022-08-18T07:03:40;19.40;99.90
8043;DHT22;4064;48.132;11.366;2022-08-18T07:08:54;19.50;99.90
8043;DHT22;4064;48.132;11.366;2022-08-18T07:13:51;19.80;99.90
8043;DHT22;4064;48.132;11.366;2022-08-18T07:16:35;20.00;99.90
8043;DHT22;4064;48.132;11.366;2022-08-18T07:19:17;20.40;99.90
8043;DHT22;4064;48.132;11.366;2022-08-18T07:21:46;20.70;99.90
8043;DHT22;4064;48.132;11.366;2022-08-18T07:24:29;21.10;99.90
8043;DHT22;4064;48.132;11.366;2022-08-18T07:27:09;21.60;99.90
8043;DHT22;4064;48.132;11.366;2022-08-18T07:30:00;21.80;99.90
8043;DHT22;4064;48.132;11.366;2022-08-18T07:35:50;21.90;99.90
8043;DHT22;4064;48.132;11.366;2022-08-18T07:49:26;23.20;99.90
8043;DHT22;4064;48.132;11.366;2022-08-18T07:51:56;23.20;99.90
8043;DHT22;4064;48.132;11.366;2022-08-18T07:57:37;23.20;99.90
8043;DHT22;4064;48.132;11.366;2022-08-18T08:00:08;23.40;99.90
8043;DHT22;4064;48.132;11.366;2022-08-18T08:21:20;23.90;99.90
8043;DHT22;4064;48.132;11.366;2022-08-18T08:26:57;24.00;99.90
8043;DHT22;4064;48.132;11.366;2022-08-18T08:29:57;24.10;99.90
8043;DHT22;4064;48.132;11.366;2022-08-18T08:32:44;24.00;99.90
8043;DHT22;4064;48.132;11.366;2022-08-18T08:35:21;24.10;99.90
8043;DHT22;4064;48.132;11.366;2022-08-18T08:37:52;24.30;99.90
8043;DHT22;4064;48.132;11.366;2022-08-18T08:40:22;24.30;99.90
8043;DHT22;4064;48.132;11.366;2022-08-18T08:42:59;24.40;99.90
8043;DHT22;4064;48.132;11.366;2022-08-18T08:45:30;24.70;99.90
8043;DHT22;4064;48.132;11.366;2022-08-18T08:50:34;25.30;98.10
8043;DHT22;4064;48.132;11.366;2022-08-18T08:55:36;25.60;96.70
8043;DHT22;4064;48.132;11.366;2022-08-18T09:00:49;26.00;96.20
8043;DHT22;4064;48.132;11.366;2022-08-18T09:08:47;27.00;92.30
8043;DHT22;4064;48.132;11.366;2022-08-18T09:17:12;27.50;91.10
8043;DHT22;4064;48.132;11.366;2022-08-18T09:39:17;28.70;75.90
8043;DHT22;4064;48.132;11.366;2022-08-18T09:42:15;28.80;76.10
8043;DHT22;4064;48.132;11.366;2022-08-18T09:49:49;29.30;70.60
8043;DHT22;4064;48.132;11.366;2022-08-18T09:55:51;29.20;70.40
8043;DHT22;4064;48.132;11.366;2022-08-18T10:01:42;28.80;69.90
8043;DHT22;4064;48.132;11.366;2022-08-18T10:04:29;28.40;69.80
8043;DHT22;4064;48.132;11.366;2022-08-18T10:07:31;28.10;70.70
8043;DHT22;4064;48.132;11.366;2022-08-18T10:23:00;29.20;69.50
8043;DHT22;4064;48.132;11.366;2022-08-18T10:25:38;29.50;68.50
8043;DHT22;4064;48.132;11.366;2022-08-18T10:28:11;29.50;67.40
8043;DHT22;4064;48.132;11.366;2022-08-18T10:31:05;29.90;67.60
8043;DHT22;4064;48.132;11.366;2022-08-18T10:33:58;30.20;66.30
8043;DHT22;4064;48.132;11.366;2022-08-18T10:38:58;29.80;64.80
8043;DHT22;4064;48.132;11.366;2022-08-18T10:41:30;29.40;65.30
8043;DHT22;4064;48.132;11.366;2022-08-18T10:43:59;29.00;65.60
8043;DHT22;4064;48.132;11.366;2022-08-18T10:46:30;28.40;66.00
8043;DHT22;4064;48.132;11.366;2022-08-18T10:49:04;28.00;66.60
8043;DHT22;4064;48.132;11.366;2022-08-18T10:51:50;27.90;67.80
8043;DHT22;4064;48.132;11.366;2022-08-18T10:54:59;27.90;67.80
8043;DHT22;4064;48.132;11.366;2022-08-18T11:00:18;29.00;65.00
8043;DHT22;4064;48.132;11.366;2022-08-18T11:03:07;29.00;63.30
8043;DHT22;4064;48.132;11.366;2022-08-18T11:05:35;28.90;63.30
8043;DHT22;4064;48.132;11.366;2022-08-18T11:08:05;28.60;63.90
8043;DHT22;4064;48.132;11.366;2022-08-18T11:10:39;28.70;65.10
8043;DHT22;4064;48.132;11.366;2022-08-18T11:13:13;28.80;65.00
8043;DHT22;4064;48.132;11.366;2022-08-18T11:18:35;29.10;65.30
8043;DHT22;4064;48.132;11.366;2022-08-18T11:24:27;29.20;65.80
8043;DHT22;4064;48.132;11.366;2022-08-18T11:29:30;28.80;64.90
8043;DHT22;4064;48.132;11.366;2022-08-18T11:35:01;28.40;64.50
8043;DHT22;4064;48.132;11.366;2022-08-18T11:40:28;28.70;64.90
8043;DHT22;4064;48.132;11.366;2022-08-18T11:53:41;29.40;64.80
8043;DHT22;4064;48.132;11.366;2022-08-18T11:58:42;29.40;64.00
8043;DHT22;4064;48.132;11.366;2022-08-18T12:01:34;29.20;64.50
8043;DHT22;4064;48.132;11.366;2022-08-18T12:06:36;29.80;63.90
8043;DHT22;4064;48.132;11.366;2022-08-18T12:09:16;29.80;63.50
8043;DHT22;4064;48.132;11.366;2022-08-18T12:11:55;29.90;63.60
8043;DHT22;4064;48.132;11.366;2022-08-18T12:14:24;29.90;61.40
8043;DHT22;4064;48.132;11.366;2022-08-18T12:16:51;30.00;62.20
8043;DHT22;4064;48.132;11.366;2022-08-18T12:19:18;30.00;61.60
8043;DHT22;4064;48.132;11.366;2022-08-18T12:22:19;29.60;61.60
8043;DHT22;4064;48.132;11.366;2022-08-18T12:24:45;29.50;61.90
8043;DHT22;4064;48.132;11.366;2022-08-18T12:27:17;29.50;61.50
8043;DHT22;4064;48.132;11.366;2022-08-18T12:29:44;29.20;61.90
8043;DHT22;4064;48.132;11.366;2022-08-18T12:32:10;29.10;61.30
8043;DHT22;4064;48.132;11.366;2022-08-18T12:34:36;29.10;62.40
8043;DHT22;4064;48.132;11.366;2022-08-18T12:37:03;29.10;63.00
8043;DHT22;4064;48.132;11.366;2022-08-18T12:39:30;29.10;63.10
8043;DHT22;4064;48.132;11.366;2022-08-18T12:41:57;29.20;62.70
8043;DHT22;4064;48.132;11.366;2022-08-18T12:44:23;29.10;62.50
8043;DHT22;4064;48.132;11.366;2022-08-18T12:46:49;29.00;63.40
8043;DHT22;4064;48.132;11.366;2022-08-18T12:49:23;28.90;63.60
8043;DHT22;4064;48.132;11.366;2022-08-18T12:51:50;28.90;63.80
8043;DHT22;4064;48.132;11.366;2022-08-18T12:54:17;28.90;63.70
8043;DHT22;4064;48.132;11.366;2022-08-18T12:56:46;28.80;64.40
8043;DHT22;4064;48.132;11.366;2022-08-18T12:59:13;28.50;63.80
8043;DHT22;4064;48.132;11.366;2022-08-18T13:01:39;28.20;64.70
8043;DHT22;4064;48.132;11.366;2022-08-18T13:04:05;28.20;65.30
8043;DHT22;4064;48.132;11.366;2022-08-18T13:06:34;28.20;65.60
8043;DHT22;4064;48.132;11.366;2022-08-18T13:09:00;28.20;65.20
8043;DHT22;4064;48.132;11.366;2022-08-18T13:11:26;28.20;65.00
8043;DHT22;4064;48.132;11.366;2022-08-18T13:13:53;28.30;66.50
8043;DHT22;4064;48.132;11.366;2022-08-18T13:16:19;28.30;66.70
8043;DHT22;4064;48.132;11.366;2022-08-18T13:18:45;28.40;66.20
8043;DHT22;4064;48.132;11.366;2022-08-18T13:21:14;28.40;65.60
8043;DHT22;4064;48.132;11.366;2022-08-18T13:23:40;28.40;65.20
8043;DHT22;4064;48.132;11.366;2022-08-18T13:26:11;28.10;65.30
8043;DHT22;4064;48.132;11.366;2022-08-18T13:28:38;28.00;65.40
8043;DHT22;4064;48.132;11.366;2022-08-18T13:31:05;27.80;65.20
8043;DHT22;4064;48.132;11.366;2022-08-18T13:33:31;27.70;64.80
8043;DHT22;4064;48.132;11.366;2022-08-18T13:35:57;27.60;65.40
8043;DHT22;4064;48.132;11.366;2022-08-18T13:38:23;27.50;66.30
8043;DHT22;4064;48.132;11.366;2022-08-18T13:40:52;27.40;66.60
8043;DHT22;4064;48.132;11.366;2022-08-18T13:43:21;27.10;66.60
8043;DHT22;4064;48.132;11.366;2022-08-18T13:45:50;27.00;66.80
8043;DHT22;4064;48.132;11.366;2022-08-18T13:48:16;26.80;67.10
8043;DHT22;4064;48.132;11.366;2022-08-18T13:50:42;26.70;67.80
8043;DHT22;4064;48.132;11.366;2022-08-18T13:53:16;26.60;68.70
8043;DHT22;4064;48.132;11.366;2022-08-18T13:55:44;26.50;69.20
8043;DHT22;4064;48.132;11.366;2022-08-18T13:58:11;26.30;69.40
8043;DHT22;4064;48.132;11.366;2022-08-18T14:00:37;26.10;69.20
8043;DHT22;4064;48.132;11.366;2022-08-18T14:03:03;26.10;69.90
8043;DHT22;4064;48.132;11.366;2022-08-18T14:05:31;25.90;70.10
8043;DHT22;4064;48.132;11.366;2022-08-18T14:07:57;26.00;70.90
8043;DHT22;4064;48.132;11.366;2022-08-18T14:10:23;25.90;70.90
8043;DHT22;4064;48.132;11.366;2022-08-18T14:12:54;25.90;70.80
8043;DHT22;4064;48.132;11.366;2022-08-18T14:15:22;26.00;71.50
8043;DHT22;4064;48.132;11.366;2022-08-18T14:17:48;26.00;71.20
8043;DHT22;4064;48.132;11.366;2022-08-18T14:20:14;26.10;71.30
8043;DHT22;4064;48.132;11.366;2022-08-18T14:22:59;26.00;70.20
8043;DHT22;4064;48.132;11.366;2022-08-18T14:25:45;26.10;70.30
8043;DHT22;4064;48.132;11.366;2022-08-18T14:28:30;26.00;69.70
8043;DHT22;4064;48.132;11.366;2022-08-18T14:30:57;26.10;70.20
8043;DHT22;4064;48.132;11.366;2022-08-18T14:33:25;26.20;70.50
8043;DHT22;4064;48.132;11.366;2022-08-18T14:35:52;26.20;69.80
8043;DHT22;4064;48.132;11.366;2022-08-18T14:38:18;26.30;70.00
8043;DHT22;4064;48.132;11.366;2022-08-18T14:40:45;26.30;68.70
8043;DHT22;4064;48.132;11.366;2022-08-18T14:43:13;26.40;69.40
8043;DHT22;4064;48.132;11.366;2022-08-18T14:45:40;26.40;68.60
8043;DHT22;4064;48.132;11.366;2022-08-18T14:48:14;26.30;68.70
8043;DHT22;4064;48.132;11.366;2022-08-18T14:50:41;26.40;69.30
8043;DHT22;4064;48.132;11.366;2022-08-18T14:53:08;26.40;68.70
8043;DHT22;4064;48.132;11.366;2022-08-18T14:55:34;26.30;69.50
8043;DHT22;4064;48.132;11.366;2022-08-18T14:58:03;26.30;69.20
8043;DHT22;4064;48.132;11.366;2022-08-18T15:00:29;26.20;69.30
8043;DHT22;4064;48.132;11.366;2022-08-18T15:02:56;26.20;69.40
8043;DHT22;4064;48.132;11.366;2022-08-18T15:05:22;26.10;70.00
8043;DHT22;4064;48.132;11.366;2022-08-18T15:07:48;26.10;69.70
8043;DHT22;4064;48.132;11.366;2022-08-18T15:10:15;26.10;69.70
8043;DHT22;4064;48.132;11.366;2022-08-18T15:12:42;26.10;70.20
8043;DHT22;4064;48.132;11.366;2022-08-18T15:15:10;26.00;69.80
8043;DHT22;4064;48.132;11.366;2022-08-18T15:17:39;25.90;70.40
8043;DHT22;4064;48.132;11.366;2022-08-18T15:20:07;25.90;70.10
8043;DHT22;4064;48.132;11.366;2022-08-18T15:22:41;25.80;70.20
8043;DHT22;4064;48.132;11.366;2022-08-18T15:25:27;25.70;70.40
8043;DHT22;4064;48.132;11.366;2022-08-18T15:28:17;25.60;71.00
8043;DHT22;4064;48.132;11.366;2022-08-18T15:30:45;25.60;71.60
8043;DHT22;4064;48.132;11.366;2022-08-18T15:33:12;25.60;72.10
8043;DHT22;4064;48.132;11.366;2022-08-18T15:35:43;25.60;72.30
8043;DHT22;4064;48.132;11.366;2022-08-18T15:38:10;25.60;72.70
8043;DHT22;4064;48.132;11.366;2022-08-18T15:40:48;25.60;72.30
8043;DHT22;4064;48.132;11.366;2022-08-18T15:43:14;25.70;73.00
8043;DHT22;4064;48.132;11.366;2022-08-18T15:45:42;25.70;74.00
8043;DHT22;4064;48.132;11.366;2022-08-18T15:48:12;25.60;75.10
8043;DHT22;4064;48.132;11.366;2022-08-18T15:50:39;25.60;77.30
8043;DHT22;4064;48.132;11.366;2022-08-18T15:53:05;25.40;76.30
8043;DHT22;4064;48.132;11.366;2022-08-18T15:55:33;25.20;76.90
8043;DHT22;4064;48.132;11.366;2022-08-18T15:57:59;25.00;77.10
8043;DHT22;4064;48.132;11.366;2022-08-18T16:00:27;24.90;78.90
8043;DHT22;4064;48.132;11.366;2022-08-18T16:02:58;24.80;80.40
8043;DHT22;4064;48.132;11.366;2022-08-18T16:05:28;24.70;81.50
8043;DHT22;4064;48.132;11.366;2022-08-18T16:07:55;24.60;83.00
8043;DHT22;4064;48.132;11.366;2022-08-18T16:10:25;24.60;84.10
8043;DHT22;4064;48.132;11.366;2022-08-18T16:12:51;24.50;84.80
8043;DHT22;4064;48.132;11.366;2022-08-18T16:15:20;24.40;85.70
8043;DHT22;4064;48.132;11.366;2022-08-18T16:17:48;24.40;87.00
8043;DHT22;4064;48.132;11.366;2022-08-18T16:20:14;24.30;86.30
8043;DHT22;4064;48.132;11.366;2022-08-18T16:22:40;24.30;87.40
8043;DHT22;4064;48.132;11.366;2022-08-18T16:25:07;24.30;88.50
8043;DHT22;4064;48.132;11.366;2022-08-18T16:27:34;24.20;89.20
8043;DHT22;4064;48.132;11.366;2022-08-18T16:30:00;24.20;90.50
8043;DHT22;4064;48.132;11.366;2022-08-18T16:32:29;24.20;91.10
8043;DHT22;4064;48.132;11.366;2022-08-18T16:34:56;24.10;90.40
8043;DHT22;4064;48.132;11.366;2022-08-18T16:37:22;24.10;91.20
8043;DHT22;4064;48.132;11.366;2022-08-18T16:39:47;24.00;92.30
8043;DHT22;4064;48.132;11.366;2022-08-18T16:42:13;24.00;93.20
8043;DHT22;4064;48.132;11.366;2022-08-18T16:44:39;24.00;93.50
8043;DHT22;4064;48.132;11.366;2022-08-18T16:47:08;23.90;93.90
8043;DHT22;4064;48.132;11.366;2022-08-18T16:49:34;23.70;93.60
8043;DHT22;4064;48.132;11.366;2022-08-18T16:52:00;23.60;93.60
8043;DHT22;4064;48.132;11.366;2022-08-18T16:54:30;23.50;94.10
8043;DHT22;4064;48.132;11.366;2022-08-18T16:56:57;23.50;94.90
8043;DHT22;4064;48.132;11.366;2022-08-18T16:59:23;23.40;95.50
8043;DHT22;4064;48.132;11.366;2022-08-18T17:02:07;23.30;96.00
8043;DHT22;4064;48.132;11.366;2022-08-18T17:04:59;23.30;95.70
8043;DHT22;4064;48.132;11.366;2022-08-18T17:07:28;23.20;96.20
8043;DHT22;4064;48.132;11.366;2022-08-18T17:09:55;23.10;96.30
8043;DHT22;4064;48.132;11.366;2022-08-18T17:12:22;23.10;96.90
8043;DHT22;4064;48.132;11.366;2022-08-18T17:14:48;22.90;96.70
8043;DHT22;4064;48.132;11.366;2022-08-18T17:17:14;22.70;96.60
8043;DHT22;4064;48.132;11.366;2022-08-18T17:19:43;22.40;96.00
8043;DHT22;4064;48.132;11.366;2022-08-18T17:22:09;22.00;96.90
8043;DHT22;4064;48.132;11.366;2022-08-18T17:24:35;21.50;98.50
8043;DHT22;4064;48.132;11.366;2022-08-18T17:27:20;21.00;99.90
8043;DHT22;4064;48.132;11.366;2022-08-18T17:29:57;20.50;99.90
8043;DHT22;4064;48.132;11.366;2022-08-18T17:32:39;20.10;99.90
8043;DHT22;4064;48.132;11.366;2022-08-18T17:35:33;19.80;99.90
8043;DHT22;4064;48.132;11.366;2022-08-18T17:40:47;19.10;99.90
8043;DHT22;4064;48.132;11.366;2022-08-18T17:43:35;18.90;99.90
8043;DHT22;4064;48.132;11.366;2022-08-18T17:46:13;18.70;99.90
8043;DHT22;4064;48.132;11.366;2022-08-18T17:48:46;18.50;99.90
8043;DHT22;4064;48.132;11.366;2022-08-18T17:51:21;18.30;99.90
8043;DHT22;4064;48.132;11.366;2022-08-18T17:54:19;18.30;99.90
8043;DHT22;4064;48.132;11.366;2022-08-18T17:56:52;18.20;99.90
8043;DHT22;4064;48.132;11.366;2022-08-18T17:59:30;18.10;99.90
8043;DHT22;4064;48.132;11.366;2022-08-18T18:02:30;18.00;99.90
8043;DHT22;4064;48.132;11.366;2022-08-18T18:04:59;17.90;99.90
8043;DHT22;4064;48.132;11.366;2022-08-18T18:10:05;17.90;99.90
8043;DHT22;4064;48.132;11.366;2022-08-18T18:12:34;17.80;99.90
8043;DHT22;4064;48.132;11.366;2022-08-18T18:15:03;17.80;99.90
8043;DHT22;4064;48.132;11.366;2022-08-18T18:17:32;17.80;99.90
8043;DHT22;4064;48.132;11.366;2022-08-18T18:22:46;17.80;99.90
8043;DHT22;4064;48.132;11.366;2022-08-18T18:25:12;17.80;99.90
8043;DHT22;4064;48.132;11.366;2022-08-18T18:27:52;17.90;99.90
8043;DHT22;4064;48.132;11.366;2022-08-18T18:30:20;17.90;99.90
8043;DHT22;4064;48.132;11.366;2022-08-18T18:37:55;17.90;99.90
8043;DHT22;4064;48.132;11.366;2022-08-18T18:40:33;17.90;99.90
8043;DHT22;4064;48.132;11.366;2022-08-18T18:43:27;17.90;99.90
8043;DHT22;4064;48.132;11.366;2022-08-18T18:52:13;17.80;99.90
8043;DHT22;4064;48.132;11.366;2022-08-18T19:00:24;18.00;99.90
8043;DHT22;4064;48.132;11.366;2022-08-18T19:03:11;18.00;99.90
8043;DHT22;4064;48.132;11.366;2022-08-18T19:11:29;17.90;99.90
8043;DHT22;4064;48.132;11.366;2022-08-18T19:14:07;17.90;99.90
8043;DHT22;4064;48.132;11.366;2022-08-18T19:16:43;17.90;99.90
8043;DHT22;4064;48.132;11.366;2022-08-18T19:19:20;17.80;99.90
8043;DHT22;4064;48.132;11.366;2022-08-18T19:21:52;17.80;99.90
8043;DHT22;4064;48.132;11.366;2022-08-18T19:24:21;17.80;99.90
8043;DHT22;4064;48.132;11.366;2022-08-18T19:26:54;17.70;99.90
8043;DHT22;4064;48.132;11.366;2022-08-18T19:29:26;17.70;99.90
8043;DHT22;4064;48.132;11.366;2022-08-18T19:32:12;17.70;99.90
8043;DHT22;4064;48.132;11.366;2022-08-18T19:34:40;17.70;99.90